createdAt,value
2023-03-25T00:01:35.613Z,5.53
2023-03-25T00:04:04.600Z,5.35
2023-03-25T00:06:35.873Z,5.88
2023-03-25T00:09:04.512Z,5.57
2023-03-25T00:11:31.878Z,6.05
2023-03-25T00:13:59.084Z,6.07
2023-03-25T00:16:26.914Z,6.30
2023-03-25T00:18:54.458Z,6.38
2023-03-25T00:21:23.564Z,5.18
2023-03-25T00:23:50.841Z,5.80
2023-03-25T00:26:18.183Z,5.32
2023-03-25T00:28:45.463Z,5.38
2023-03-25T00:31:15.218Z,5.43
2023-03-25T00:33:42.494Z,5.30
2023-03-25T00:36:13.959Z,4.97
2023-03-25T00:38:43.441Z,5.25
2023-03-25T00:41:23.523Z,5.30
2023-03-25T00:43:53.185Z,5.20
2023-03-25T00:46:23.049Z,5.80
2023-03-25T00:48:51.064Z,5.57
2023-03-25T00:51:22.301Z,5.43
2023-03-25T00:53:55.986Z,4.90
2023-03-25T00:56:24.330Z,5.45
2023-03-25T00:58:52.436Z,5.82
2023-03-25T01:01:29.394Z,5.47
2023-03-25T01:03:59.430Z,4.97
2023-03-25T01:06:29.768Z,4.88
2023-03-25T01:08:58.260Z,5.65
2023-03-25T01:11:28.653Z,5.38
2023-03-25T01:14:00.250Z,5.53
2023-03-25T01:16:28.967Z,5.47
2023-03-25T01:18:56.820Z,4.97
2023-03-25T01:21:25.610Z,5.25
2023-03-25T01:23:52.932Z,5.25
2023-03-25T01:26:20.631Z,5.18
2023-03-25T01:28:48.352Z,5.45
2023-03-25T01:31:18.058Z,5.47
2023-03-25T01:33:45.824Z,4.70
2023-03-25T01:36:13.883Z,4.45
2023-03-25T01:38:44.126Z,5.47
2023-03-25T01:41:11.742Z,5.80
2023-03-25T01:43:39.448Z,5.18
2023-03-25T01:46:14.548Z,5.88
2023-03-25T01:48:44.620Z,5.68
2023-03-25T01:51:20.631Z,5.85
2023-03-25T01:53:49.089Z,5.72
2023-03-25T01:56:22.294Z,6.03
2023-03-25T01:58:52.083Z,6.30
2023-03-25T02:01:22.569Z,6.35
2023-03-25T02:03:53.283Z,5.78
2023-03-25T02:06:29.333Z,6.00
2023-03-25T02:09:00.196Z,5.90
2023-03-25T02:11:29.956Z,5.68
2023-03-25T02:14:02.453Z,6.35
2023-03-25T02:16:50.676Z,5.60
2023-03-25T02:19:51.710Z,6.22
2023-03-25T02:22:42.475Z,6.35
2023-03-25T02:25:35.755Z,6.10
2023-03-25T02:31:06.877Z,6.47
2023-03-25T02:33:37.160Z,5.93
2023-03-25T02:36:30.493Z,5.18
2023-03-25T02:39:27.344Z,6.45
2023-03-25T02:42:09.500Z,5.95
2023-03-25T02:47:14.123Z,5.75
2023-03-25T02:49:58.696Z,5.72
2023-03-25T02:52:31.797Z,5.60
2023-03-25T02:55:05.468Z,5.60
2023-03-25T02:57:36.844Z,5.47
2023-03-25T03:00:15.833Z,5.60
2023-03-25T03:03:05.165Z,6.20
2023-03-25T03:05:37.558Z,5.97
2023-03-25T03:08:39.931Z,4.53
2023-03-25T03:11:22.613Z,5.47
2023-03-25T03:14:02.807Z,4.88
2023-03-25T03:17:05.660Z,5.50
2023-03-25T03:19:42.151Z,5.65
2023-03-25T03:22:15.384Z,5.07
2023-03-25T03:24:51.730Z,5.03
2023-03-25T03:27:24.191Z,5.22
2023-03-25T03:30:14.021Z,5.68
2023-03-25T03:33:13.674Z,5.45
2023-03-25T03:35:52.263Z,6.25
2023-03-25T03:38:23.846Z,5.30
2023-03-25T03:40:56.042Z,5.57
2023-03-25T03:43:41.953Z,5.20
2023-03-25T03:46:28.657Z,5.22
2023-03-25T03:48:59.218Z,4.80
2023-03-25T03:51:26.717Z,5.10
2023-03-25T03:53:58.703Z,4.43
2023-03-25T03:56:37.762Z,4.05
2023-03-25T03:59:13.875Z,5.63
2023-03-25T04:01:49.213Z,5.25
2023-03-25T04:04:22.658Z,5.28
2023-03-25T04:06:58.228Z,4.97
2023-03-25T04:09:35.343Z,6.38
2023-03-25T04:12:18.260Z,6.00
2023-03-25T04:14:46.976Z,6.10
2023-03-25T04:17:14.582Z,6.30
2023-03-25T04:19:41.855Z,6.55
2023-03-25T04:22:09.456Z,6.78
2023-03-25T04:24:38.300Z,6.43
2023-03-25T04:27:05.794Z,6.45
2023-03-25T04:29:34.502Z,6.97
2023-03-25T04:32:02.382Z,6.40
2023-03-25T04:34:29.854Z,5.90
2023-03-25T04:36:58.494Z,6.55
2023-03-25T04:39:29.978Z,6.72
2023-03-25T04:41:57.598Z,6.20
2023-03-25T04:44:26.233Z,6.07
2023-03-25T04:46:53.859Z,5.93
2023-03-25T04:49:22.982Z,6.03
2023-03-25T04:51:52.790Z,5.30
2023-03-25T04:54:21.741Z,5.75
2023-03-25T04:56:51.479Z,5.60
2023-03-25T04:59:20.309Z,5.65
2023-03-25T05:01:48.601Z,6.60
2023-03-25T05:04:18.013Z,5.82
2023-03-25T05:06:48.758Z,5.53
2023-03-25T05:09:24.855Z,7.05
2023-03-25T05:11:53.923Z,6.13
2023-03-25T05:14:22.320Z,5.75
2023-03-25T05:16:53.948Z,6.60
2023-03-25T05:19:22.117Z,5.90
2023-03-25T05:21:50.023Z,6.63
2023-03-25T05:24:17.962Z,6.18
2023-03-25T05:26:45.671Z,6.53
2023-03-25T05:29:16.048Z,6.40
2023-03-25T05:31:46.342Z,6.45
2023-03-25T05:34:15.032Z,6.75
2023-03-25T05:36:42.440Z,6.38
2023-03-25T05:39:11.171Z,6.43
2023-03-25T05:41:41.833Z,7.40
2023-03-25T05:44:15.064Z,6.40
2023-03-25T05:46:42.420Z,6.50
2023-03-25T05:49:10.090Z,6.68
2023-03-25T05:51:38.052Z,6.15
2023-03-25T05:54:11.918Z,6.93
2023-03-25T05:56:40.293Z,5.35
2023-03-25T05:59:08.642Z,6.88
2023-03-25T06:01:42.302Z,6.82
2023-03-25T06:04:13.320Z,6.40
2023-03-25T06:06:41.629Z,7.32
2023-03-25T06:09:09.132Z,7.07
2023-03-25T06:11:38.889Z,6.03
2023-03-25T06:14:07.221Z,6.97
2023-03-25T06:16:36.091Z,6.88
2023-03-25T06:19:04.242Z,6.88
2023-03-25T06:21:35.128Z,6.78
2023-03-25T06:24:03.132Z,7.05
2023-03-25T06:26:33.009Z,7.85
2023-03-25T06:29:03.310Z,7.32
2023-03-25T06:31:34.383Z,6.47
2023-03-25T06:34:02.110Z,6.43
2023-03-25T06:36:29.696Z,7.25
2023-03-25T06:38:58.645Z,7.03
2023-03-25T06:41:26.776Z,7.43
2023-03-25T06:44:07.986Z,7.60
2023-03-25T06:46:47.921Z,8.07
2023-03-25T06:49:29.809Z,8.18
2023-03-25T06:51:58.773Z,8.10
2023-03-25T06:54:26.250Z,7.68
2023-03-25T06:56:54.127Z,7.60
2023-03-25T06:59:21.468Z,8.02
2023-03-25T07:01:48.886Z,7.40
2023-03-25T07:04:17.862Z,7.25
2023-03-25T07:06:47.020Z,7.72
2023-03-25T07:09:14.528Z,6.70
2023-03-25T07:11:43.450Z,5.90
2023-03-25T07:14:11.020Z,7.07
2023-03-25T07:16:38.669Z,6.50
2023-03-25T07:19:06.315Z,6.38
2023-03-25T07:21:34.017Z,6.68
2023-03-25T07:24:02.003Z,7.40
2023-03-25T07:26:29.337Z,6.55
2023-03-25T07:28:57.188Z,6.57
2023-03-25T07:31:25.316Z,7.75
2023-03-25T07:33:52.990Z,7.28
2023-03-25T07:36:22.629Z,7.65
2023-03-25T07:38:50.383Z,6.28
2023-03-25T07:41:18.053Z,6.55
2023-03-25T07:44:05.999Z,6.95
2023-03-25T07:46:33.258Z,6.68
2023-03-25T07:49:01.514Z,6.82
2023-03-25T07:51:30.717Z,6.93
2023-03-25T07:54:04.924Z,6.60
2023-03-25T07:56:33.243Z,6.72
2023-03-25T07:59:01.521Z,6.70
2023-03-25T08:01:29.198Z,7.22
2023-03-25T08:03:57.077Z,7.05
2023-03-25T08:06:24.880Z,7.15
2023-03-25T08:08:52.378Z,6.00
2023-03-25T08:11:20.209Z,6.57
2023-03-25T08:13:48.032Z,6.57
2023-03-25T08:16:15.958Z,7.30
2023-03-25T08:18:45.400Z,6.57
2023-03-25T08:21:13.934Z,7.78
2023-03-25T08:23:41.603Z,7.00
2023-03-25T08:26:12.104Z,7.00
2023-03-25T08:28:39.427Z,7.55
2023-03-25T08:31:09.089Z,7.15
2023-03-25T08:33:39.758Z,7.90
2023-03-25T08:36:10.582Z,7.35
2023-03-25T08:38:38.513Z,8.05
2023-03-25T08:41:05.847Z,7.28
2023-03-25T08:43:33.186Z,6.43
2023-03-25T08:46:01.093Z,6.47
2023-03-25T08:48:28.696Z,6.95
2023-03-25T08:50:56.824Z,7.32
2023-03-25T08:53:25.348Z,6.65
2023-03-25T08:55:57.590Z,7.10
2023-03-25T08:58:26.223Z,7.43
2023-03-25T09:00:56.169Z,7.60
2023-03-25T09:03:24.590Z,6.93
2023-03-25T09:05:51.960Z,7.68
2023-03-25T09:08:19.806Z,7.05
2023-03-25T09:10:47.969Z,7.28
2023-03-25T09:13:18.547Z,7.28
2023-03-25T09:15:46.655Z,6.80
2023-03-25T09:18:14.225Z,7.43
2023-03-25T09:20:41.609Z,8.02
2023-03-25T09:23:10.181Z,7.38
2023-03-25T09:25:38.690Z,7.63
2023-03-25T09:28:06.385Z,6.90
2023-03-25T09:30:34.118Z,7.03
2023-03-25T09:33:01.928Z,7.30
2023-03-25T09:35:29.845Z,7.45
2023-03-25T09:37:57.302Z,6.80
2023-03-25T09:40:25.287Z,7.15
2023-03-25T09:43:01.401Z,6.72
2023-03-25T09:45:43.903Z,6.78
2023-03-25T09:48:36.978Z,6.88
2023-03-25T09:51:19.556Z,6.95
2023-03-25T09:53:51.040Z,8.27
2023-03-25T09:56:23.262Z,12.35
2023-03-25T09:59:00.778Z,11.43
2023-03-25T10:01:35.448Z,13.80
2023-03-25T10:04:33.912Z,11.38
2023-03-25T10:07:29.065Z,10.80
2023-03-25T10:10:24.793Z,8.38
2023-03-25T10:13:16.977Z,7.15
2023-03-25T10:15:59.887Z,8.63
2023-03-25T10:18:28.376Z,7.28
2023-03-25T10:21:24.121Z,7.55
2023-03-25T10:24:02.806Z,7.47
2023-03-25T10:26:53.153Z,7.63
2023-03-25T10:29:27.630Z,8.15
2023-03-25T10:32:02.204Z,8.18
2023-03-25T10:34:56.753Z,7.95
2023-03-25T10:37:34.298Z,7.70
2023-03-25T10:40:25.756Z,8.23
2023-03-25T10:42:58.591Z,8.52
2023-03-25T10:45:29.025Z,8.00
2023-03-25T10:48:06.372Z,8.23
2023-03-25T10:50:33.707Z,8.23
2023-03-25T10:53:01.451Z,7.85
2023-03-25T10:55:35.191Z,8.25
2023-03-25T10:58:03.308Z,7.57
2023-03-25T11:00:30.884Z,6.93
2023-03-25T11:02:58.296Z,7.13
2023-03-25T11:05:32.178Z,7.00
2023-03-25T11:08:18.274Z,6.95
2023-03-25T11:10:56.096Z,7.70
2023-03-25T11:13:31.412Z,7.00
2023-03-25T11:16:02.498Z,7.43
2023-03-25T11:18:40.431Z,7.68
2023-03-25T11:21:13.545Z,6.85
2023-03-25T11:23:48.478Z,7.15
2023-03-25T11:26:25.109Z,6.47
2023-03-25T11:29:02.125Z,7.22
2023-03-25T11:31:35.291Z,6.57
2023-03-25T11:34:12.357Z,6.53
2023-03-25T11:36:55.775Z,6.85
2023-03-25T11:39:23.462Z,7.15
2023-03-25T11:41:52.867Z,7.35
2023-03-25T11:44:32.124Z,7.00
2023-03-25T11:47:06.714Z,6.88
2023-03-25T11:49:41.038Z,7.00
2023-03-25T11:52:22.890Z,6.82
2023-03-25T11:54:54.470Z,6.95
2023-03-25T11:57:29.609Z,6.70
2023-03-25T12:00:13.154Z,7.00
2023-03-25T12:02:41.382Z,6.45
2023-03-25T12:05:09.063Z,7.15
2023-03-25T12:07:51.716Z,8.10
2023-03-25T12:10:29.042Z,8.02
2023-03-25T12:13:24.414Z,7.90
2023-03-25T12:16:04.771Z,7.35
2023-03-25T12:18:57.455Z,7.00
2023-03-25T12:21:30.647Z,7.88
2023-03-25T12:24:38.572Z,8.77
2023-03-25T12:27:15.088Z,8.73
2023-03-25T12:30:07.124Z,8.50
2023-03-25T12:33:02.597Z,8.65
2023-03-25T12:36:04.965Z,8.60
2023-03-25T12:39:09.334Z,9.02
2023-03-25T12:41:54.993Z,8.73
2023-03-25T12:44:47.032Z,9.07
2023-03-25T12:47:38.846Z,8.45
2023-03-25T12:50:37.253Z,8.50
2023-03-25T12:53:15.777Z,8.07
2023-03-25T12:56:04.975Z,8.38
2023-03-25T12:58:46.834Z,9.02
2023-03-25T13:01:36.963Z,9.55
2023-03-25T13:04:17.347Z,9.40
2023-03-25T13:07:00.542Z,10.60
2023-03-25T13:09:42.926Z,11.57
2023-03-25T13:12:18.353Z,11.35
2023-03-25T13:14:57.380Z,10.38
2023-03-25T13:17:34.479Z,10.32
2023-03-25T13:20:10.961Z,10.05
2023-03-25T13:22:45.206Z,11.02
2023-03-25T13:25:26.988Z,11.63
2023-03-25T13:27:58.757Z,10.48
2023-03-25T13:30:35.286Z,10.75
2023-03-25T13:33:15.257Z,10.02
2023-03-25T13:35:56.645Z,10.13
2023-03-25T13:38:34.673Z,10.25
2023-03-25T13:41:12.274Z,11.02
2023-03-25T13:43:54.989Z,11.02
2023-03-25T13:49:07.531Z,10.30
2023-03-25T13:51:35.396Z,10.10
2023-03-25T13:54:12.264Z,9.70
2023-03-25T13:56:46.194Z,10.88
2023-03-25T13:59:17.654Z,10.82
2023-03-25T14:02:17.510Z,10.70
2023-03-25T14:05:26.985Z,10.43
2023-03-25T14:08:00.701Z,10.55
2023-03-25T14:11:20.438Z,10.60
2023-03-25T14:14:01.668Z,9.07
2023-03-25T14:16:36.409Z,8.90
2023-03-25T14:19:10.552Z,9.68
2023-03-25T14:21:38.800Z,9.75
2023-03-25T14:24:35.551Z,10.23
2023-03-25T14:27:16.492Z,9.23
2023-03-25T14:29:52.837Z,9.40
2023-03-25T14:32:20.477Z,10.10
2023-03-25T14:34:52.965Z,8.80
2023-03-25T14:37:27.685Z,9.45
2023-03-25T14:40:01.026Z,9.05
2023-03-25T14:42:50.232Z,9.45
2023-03-25T14:45:32.913Z,9.07
2023-03-25T14:48:01.134Z,9.18
2023-03-25T14:50:28.751Z,9.05
2023-03-25T14:53:00.858Z,9.07
2023-03-25T14:55:42.598Z,8.82
2023-03-25T14:58:26.765Z,8.70
2023-03-25T15:01:04.763Z,9.10
2023-03-25T15:03:36.973Z,9.30
2023-03-25T15:06:07.320Z,8.20
2023-03-25T15:08:39.550Z,8.02
2023-03-25T15:11:16.057Z,12.60
2023-03-25T15:13:53.124Z,14.40
2023-03-25T15:16:35.119Z,14.20
2023-03-25T15:19:04.683Z,13.88
2023-03-25T15:21:35.588Z,10.95
2023-03-25T15:24:10.509Z,11.27
2023-03-25T15:26:45.031Z,12.93
2023-03-25T15:29:28.785Z,12.23
2023-03-25T15:32:09.285Z,10.57
2023-03-25T15:34:56.797Z,11.48
2023-03-25T15:37:48.889Z,10.98
2023-03-25T15:40:31.440Z,10.15
2023-03-25T15:43:40.646Z,10.38
2023-03-25T15:46:52.137Z,9.98
2023-03-25T15:49:41.129Z,9.60
2023-03-25T15:52:50.244Z,10.55
2023-03-25T15:55:24.801Z,11.82
2023-03-25T15:57:59.754Z,12.05
2023-03-25T16:00:42.632Z,12.27
2023-03-25T16:03:19.908Z,11.30
2023-03-25T16:06:08.274Z,12.02
2023-03-25T16:08:41.378Z,13.30
2023-03-25T16:11:22.005Z,13.65
2023-03-25T16:14:08.365Z,14.50
2023-03-25T16:16:39.776Z,14.38
2023-03-25T16:19:12.053Z,16.08
2023-03-25T16:21:39.712Z,16.30
2023-03-25T16:24:09.619Z,14.90
2023-03-25T16:26:40.772Z,13.93
2023-03-25T16:29:29.671Z,15.40
2023-03-25T16:32:03.005Z,14.63
2023-03-25T16:34:40.992Z,14.45
2023-03-25T16:37:11.509Z,13.98
2023-03-25T16:39:38.984Z,15.48
2023-03-25T16:42:20.438Z,15.85
2023-03-25T16:44:48.002Z,15.60
2023-03-25T16:47:16.469Z,16.83
2023-03-25T16:49:48.818Z,16.95
2023-03-25T16:52:19.773Z,18.73
2023-03-25T16:55:26.831Z,19.80
2023-03-25T16:57:54.583Z,24.55
2023-03-25T17:00:24.751Z,27.10
2023-03-25T17:02:54.257Z,24.50
2023-03-25T17:05:26.926Z,23.83
2023-03-25T17:08:05.065Z,21.38
2023-03-25T17:10:44.091Z,22.25
2023-03-25T17:13:11.779Z,21.40
2023-03-25T17:15:39.323Z,24.17
2023-03-25T17:18:12.437Z,25.70
2023-03-25T17:20:46.316Z,25.55
2023-03-25T17:23:37.401Z,23.33
2023-03-25T17:26:08.757Z,29.10
2023-03-25T17:28:40.419Z,31.67
2023-03-25T17:31:36.730Z,44.03
2023-03-25T17:34:32.205Z,58.85
2023-03-25T17:37:03.911Z,64.35
2023-03-25T17:39:33.678Z,55.08
2023-03-25T17:42:14.450Z,42.90
2023-03-25T17:44:45.523Z,33.42
2023-03-25T17:47:17.953Z,28.40
2023-03-25T17:49:45.222Z,25.30
2023-03-25T17:52:12.639Z,28.08
2023-03-25T17:54:39.729Z,25.77
2023-03-25T17:57:14.500Z,29.90
2023-03-25T17:59:41.817Z,26.08
2023-03-25T18:02:12.365Z,25.42
2023-03-25T18:04:39.658Z,28.58
2023-03-25T18:07:07.739Z,28.08
2023-03-25T18:09:35.507Z,25.00
2023-03-25T18:12:02.645Z,24.92
2023-03-25T18:14:29.985Z,24.23
2023-03-25T18:16:57.299Z,24.33
2023-03-25T18:19:27.712Z,24.45
2023-03-25T18:21:55.374Z,25.42
2023-03-25T18:24:22.953Z,26.17
2023-03-25T18:26:50.745Z,26.33
2023-03-25T18:29:28.550Z,26.92
2023-03-25T18:31:55.899Z,25.42
2023-03-25T18:34:25.736Z,56.10
2023-03-25T18:36:54.146Z,49.35
2023-03-25T18:39:27.094Z,48.88
2023-03-25T18:41:54.355Z,38.05
2023-03-25T18:44:21.760Z,31.13
2023-03-25T18:46:49.190Z,27.73
2023-03-25T18:49:18.768Z,27.50
2023-03-25T18:51:48.476Z,27.30
2023-03-25T18:54:15.888Z,26.45
2023-03-25T18:56:43.475Z,29.33
2023-03-25T18:59:15.803Z,23.65
2023-03-25T19:01:43.227Z,21.20
2023-03-25T19:04:10.779Z,20.42
2023-03-25T19:06:39.532Z,21.10
2023-03-25T19:09:11.521Z,20.00
2023-03-25T19:11:38.973Z,20.95
2023-03-25T19:14:06.319Z,19.83
2023-03-25T19:16:33.616Z,21.95
2023-03-25T19:19:01.647Z,20.17
2023-03-25T19:21:28.977Z,19.98
2023-03-25T19:23:56.390Z,22.80
2023-03-25T19:26:23.522Z,21.30
2023-03-25T19:28:50.926Z,22.73
2023-03-25T19:31:19.429Z,23.85
2023-03-25T19:33:46.920Z,23.25
2023-03-25T19:36:19.279Z,23.35
2023-03-25T19:38:47.134Z,25.08
2023-03-25T19:41:18.189Z,25.55
2023-03-25T19:43:46.076Z,26.75
2023-03-25T19:46:13.751Z,26.90
2023-03-25T19:48:41.116Z,27.67
2023-03-25T19:51:08.708Z,28.13
2023-03-25T19:53:36.213Z,28.65
2023-03-25T19:56:05.401Z,29.08
2023-03-25T19:58:35.052Z,30.00
2023-03-25T20:01:02.678Z,27.73
2023-03-25T20:03:31.686Z,28.20
2023-03-25T20:06:02.857Z,28.40
2023-03-25T20:08:30.552Z,25.77
2023-03-25T20:10:59.226Z,26.60
2023-03-25T20:13:26.768Z,27.77
2023-03-25T20:15:54.648Z,26.05
2023-03-25T20:18:25.331Z,28.90
2023-03-25T20:20:53.047Z,29.58
2023-03-25T20:23:20.542Z,31.05
2023-03-25T20:25:49.884Z,30.30
2023-03-25T20:28:18.636Z,32.88
2023-03-25T20:30:46.628Z,31.90
2023-03-25T20:33:13.899Z,31.95
2023-03-25T20:35:41.948Z,33.03
2023-03-25T20:38:10.047Z,31.90
2023-03-25T20:40:44.668Z,32.88
2023-03-25T20:43:14.757Z,34.22
2023-03-25T20:45:43.896Z,35.45
2023-03-25T20:48:11.317Z,35.45
2023-03-25T20:50:38.921Z,35.28
2023-03-25T20:53:06.204Z,36.20
2023-03-25T20:55:33.280Z,36.95
2023-03-25T20:58:01.115Z,36.90
2023-03-25T21:00:28.620Z,37.38
2023-03-25T21:02:55.994Z,39.03
2023-03-25T21:05:23.477Z,38.45
2023-03-25T21:07:51.245Z,39.53
2023-03-25T21:10:20.386Z,39.72
2023-03-25T21:12:48.173Z,38.67
2023-03-25T21:15:15.769Z,42.08
2023-03-25T21:17:43.561Z,41.30
2023-03-25T21:20:12.127Z,41.97
2023-03-25T21:25:15.217Z,36.22
2023-03-25T21:27:45.472Z,35.85
2023-03-25T21:30:14.156Z,33.78
2023-03-25T21:32:42.353Z,33.67
2023-03-25T21:35:10.814Z,33.00
2023-03-25T21:37:39.958Z,31.48
2023-03-25T21:40:11.226Z,31.35
2023-03-25T21:42:41.721Z,29.17
2023-03-25T21:45:12.014Z,29.35
2023-03-25T21:47:40.300Z,28.17
2023-03-25T21:50:10.603Z,29.75
2023-03-25T21:52:43.423Z,29.52
2023-03-25T21:55:11.560Z,28.52
2023-03-25T21:57:39.765Z,30.02
2023-03-25T22:00:08.860Z,27.08
2023-03-25T22:02:43.596Z,26.67
2023-03-25T22:05:12.904Z,24.75
2023-03-25T22:07:41.661Z,26.85
2023-03-25T22:10:10.624Z,28.52
2023-03-25T22:12:38.420Z,26.67
2023-03-25T22:15:06.772Z,26.50
2023-03-25T22:17:34.298Z,27.50
2023-03-25T22:20:01.831Z,26.05
2023-03-25T22:22:30.320Z,28.52
2023-03-25T22:24:58.115Z,27.67
2023-03-25T22:27:26.105Z,28.55
2023-03-25T22:29:53.491Z,28.55
2023-03-25T22:32:20.903Z,28.73
2023-03-25T22:34:48.090Z,28.35
2023-03-25T22:37:15.875Z,27.60
2023-03-25T22:39:43.429Z,26.52
2023-03-25T22:42:10.399Z,24.30
2023-03-25T22:44:38.084Z,25.50
2023-03-25T22:47:05.358Z,26.20
2023-03-25T22:49:32.936Z,24.27
2023-03-25T22:52:01.468Z,25.08
2023-03-25T22:54:29.040Z,24.58
2023-03-25T22:56:56.339Z,24.17
2023-03-25T22:59:23.663Z,23.42
2023-03-25T23:01:50.964Z,23.65
2023-03-25T23:04:18.351Z,22.90
2023-03-25T23:06:53.933Z,22.13
2023-03-25T23:09:45.349Z,21.40
2023-03-25T23:12:15.969Z,23.15
2023-03-25T23:14:49.412Z,23.05
2023-03-25T23:17:17.201Z,24.23
2023-03-25T23:19:45.665Z,23.67
2023-03-25T23:22:13.258Z,19.17
2023-03-25T23:24:43.621Z,21.25
2023-03-25T23:27:12.441Z,19.35
2023-03-25T23:29:40.138Z,19.98
2023-03-25T23:32:08.980Z,17.60
2023-03-25T23:34:38.512Z,16.33
2023-03-25T23:37:07.813Z,17.45
2023-03-25T23:39:36.094Z,17.73
2023-03-25T23:42:03.393Z,18.30
2023-03-25T23:44:31.318Z,17.02
2023-03-25T23:46:58.814Z,17.70
2023-03-25T23:49:26.121Z,16.13
2023-03-25T23:51:53.423Z,16.35
2023-03-25T23:54:20.978Z,15.05
2023-03-25T23:56:48.150Z,14.88
2023-03-25T23:59:15.332Z,13.88
